createdAt,value
2019-04-25T00:00:28.453Z,9.91
2019-04-25T00:01:03.298Z,9.83
2019-04-25T00:02:02.022Z,9.71
2019-04-25T00:03:02.018Z,9.68
2019-04-25T00:04:02.151Z,9.73
2019-04-25T00:05:03.249Z,9.68
2019-04-25T00:06:27.527Z,9.53
2019-04-25T00:07:02.520Z,9.62
2019-04-25T00:08:03.960Z,9.53
2019-04-25T00:09:02.518Z,9.42
2019-04-25T00:10:02.523Z,9.38
2019-04-25T00:11:03.025Z,9.40
2019-04-25T00:12:06.518Z,9.35
2019-04-25T00:13:03.583Z,9.37
2019-04-25T00:14:03.951Z,9.34
2019-04-25T00:15:03.529Z,9.40
2019-04-25T00:16:04.452Z,9.49
2019-04-25T00:17:28.517Z,9.48
2019-04-25T00:18:03.517Z,9.50
2019-04-25T00:19:04.017Z,9.44
2019-04-25T00:20:04.016Z,9.48
2019-04-25T00:21:04.023Z,9.49
2019-04-25T00:22:04.018Z,9.55
2019-04-25T00:23:07.514Z,9.56
2019-04-25T00:24:25.517Z,9.58
2019-04-25T00:25:25.514Z,9.62
2019-04-25T00:26:25.524Z,9.48
2019-04-25T00:27:26.017Z,9.45
2019-04-25T00:28:08.516Z,9.38
2019-04-25T00:29:26.017Z,9.45
2019-04-25T00:30:05.014Z,9.50
2019-04-25T00:31:26.516Z,9.41
2019-04-25T00:33:41.971Z,9.45
2019-04-25T00:34:38.340Z,9.44
2019-04-25T00:35:36.889Z,9.44
2019-04-25T00:36:57.889Z,9.48
2019-04-25T00:37:58.390Z,9.45
2019-04-25T00:38:42.666Z,9.42
2019-04-25T00:39:58.389Z,9.48
2019-04-25T00:40:58.389Z,9.49
2019-04-25T00:41:39.336Z,9.37
2019-04-25T00:42:58.886Z,9.31
2019-04-25T00:43:37.886Z,9.30
2019-04-25T00:44:44.790Z,9.30
2019-04-25T00:45:59.387Z,9.24
2019-04-25T00:46:38.388Z,9.13
2019-04-25T00:47:38.388Z,9.13
2019-04-25T00:48:38.388Z,9.22
2019-04-25T00:49:44.068Z,9.24
2019-04-25T00:50:38.888Z,9.16
2019-04-25T00:51:59.890Z,9.10
2019-04-25T00:52:38.888Z,9.10
2019-04-25T00:53:39.388Z,9.12
2019-04-25T00:54:39.383Z,9.06
2019-04-25T00:55:43.128Z,9.04
2019-04-25T00:56:39.392Z,9.00
2019-04-25T00:57:39.888Z,8.88
2019-04-25T00:58:39.888Z,8.89
2019-04-25T00:59:41.741Z,8.88
2019-04-25T01:00:44.823Z,8.89
2019-04-25T01:01:41.381Z,8.85
2019-04-25T01:02:40.389Z,8.86
2019-04-25T01:03:40.387Z,8.80
2019-04-25T01:04:41.817Z,8.85
2019-04-25T01:05:42.457Z,8.79
2019-04-25T01:07:05.885Z,8.76
2019-04-25T01:07:42.202Z,8.85
2019-04-25T01:08:41.511Z,8.88
2019-04-25T01:09:42.450Z,8.86
2019-04-25T01:10:41.658Z,8.79
2019-04-25T01:11:42.435Z,8.76
2019-04-25T01:15:48.470Z,8.65
2019-04-25T01:16:48.565Z,8.65
2019-04-25T01:17:52.130Z,8.68
2019-04-25T01:18:49.534Z,8.58
2019-04-25T01:19:48.916Z,8.68
2019-04-25T01:20:51.170Z,8.61
2019-04-25T01:21:48.098Z,8.61
2019-04-25T01:22:52.111Z,8.61
2019-04-25T01:23:49.352Z,8.64
2019-04-25T01:25:09.599Z,8.65
2019-04-25T01:25:49.467Z,8.71
2019-04-25T01:26:51.675Z,8.71
2019-04-25T01:28:13.598Z,8.54
2019-04-25T01:29:10.106Z,8.50
2019-04-25T01:29:49.810Z,8.61
2019-04-25T01:30:49.943Z,8.60
2019-04-25T01:31:50.096Z,8.61
2019-04-25T01:32:50.390Z,8.60
2019-04-25T01:34:14.289Z,8.50
2019-04-25T01:34:50.495Z,8.55
2019-04-25T01:35:50.585Z,8.52
2019-04-25T01:36:50.752Z,8.55
2019-04-25T01:37:51.067Z,8.50
2019-04-25T01:38:50.895Z,8.55
2019-04-25T01:39:55.323Z,8.54
2019-04-25T01:40:51.199Z,8.63
2019-04-25T01:41:51.315Z,8.60
2019-04-25T01:42:51.489Z,8.60
2019-04-25T01:43:53.237Z,8.49
2019-04-25T01:44:51.613Z,8.42
2019-04-25T01:45:54.878Z,8.34
2019-04-25T01:46:51.845Z,8.42
2019-04-25T01:47:52.474Z,8.39
2019-04-25T01:48:54.256Z,8.28
2019-04-25T01:49:52.710Z,8.36
2019-04-25T01:50:56.497Z,8.29
2019-04-25T01:51:53.991Z,8.32
2019-04-25T01:52:54.367Z,8.25
2019-04-25T01:53:53.132Z,8.29
2019-04-25T01:54:54.366Z,8.24
2019-04-25T01:56:00.578Z,8.22
2019-04-25T01:56:57.366Z,8.21
2019-04-25T01:57:54.749Z,8.25
2019-04-25T01:58:53.886Z,8.22
2019-04-25T01:59:54.117Z,8.22
2019-04-25T02:01:14.389Z,8.28
2019-04-25T02:01:54.596Z,8.32
2019-04-25T02:02:56.777Z,8.42
2019-04-25T02:03:58.029Z,8.32
2019-04-25T02:05:14.592Z,8.36
2019-04-25T02:07:24.971Z,8.45
2019-04-25T02:08:27.979Z,8.43
2019-04-25T02:09:45.979Z,8.25
2019-04-25T02:10:25.486Z,8.29
2019-04-25T02:11:28.412Z,8.28
2019-04-25T02:12:25.478Z,8.24
2019-04-25T02:13:29.480Z,8.25
2019-04-25T02:14:25.985Z,8.29
2019-04-25T02:16:58.360Z,8.22
2019-04-25T02:18:18.353Z,8.27
2019-04-25T02:19:01.756Z,8.24
2019-04-25T02:20:18.863Z,8.22
2019-04-25T02:21:01.365Z,8.20
2019-04-25T02:23:30.286Z,8.25
2019-04-25T02:24:33.870Z,8.22
2019-04-25T02:25:29.344Z,8.27
2019-04-25T02:26:29.845Z,8.21
2019-04-25T02:27:29.844Z,8.27
2019-04-25T02:28:29.845Z,8.18
2019-04-25T02:29:33.843Z,8.13
2019-04-25T02:30:30.347Z,8.14
2019-04-25T02:31:34.450Z,8.14
2019-04-25T02:32:30.357Z,8.13
2019-04-25T02:33:30.343Z,8.12
2019-04-25T02:34:30.345Z,8.10
2019-04-25T02:37:09.420Z,8.12
2019-04-25T02:38:27.049Z,8.14
2019-04-25T02:39:08.975Z,8.14
2019-04-25T02:40:27.546Z,8.02
2019-04-25T02:41:14.889Z,8.06
2019-04-25T02:42:08.455Z,8.04
2019-04-25T02:43:08.134Z,7.99
2019-04-25T02:45:38.292Z,8.00
2019-04-25T02:46:41.793Z,8.00
2019-04-25T02:47:38.294Z,8.06
2019-04-25T02:48:38.793Z,8.00
2019-04-25T02:49:39.800Z,7.96
2019-04-25T02:50:38.792Z,7.94
2019-04-25T02:52:08.466Z,8.03
2019-04-25T02:52:39.302Z,7.84
2019-04-25T02:53:39.296Z,7.82
2019-04-25T02:54:39.291Z,7.73
2019-04-25T02:55:39.291Z,7.70
2019-04-25T02:56:39.798Z,7.67
2019-04-25T02:57:44.732Z,7.73
2019-04-25T02:58:39.805Z,7.73
2019-04-25T03:01:19.598Z,7.58
2019-04-25T03:02:11.414Z,7.55
2019-04-25T03:03:15.415Z,7.55
2019-04-25T03:05:47.337Z,7.55
2019-04-25T03:06:45.250Z,7.54
2019-04-25T03:07:44.574Z,7.51
2019-04-25T03:08:47.162Z,7.44
2019-04-25T03:09:45.292Z,7.51
2019-04-25T03:11:06.345Z,7.55
2019-04-25T03:11:45.085Z,7.57
2019-04-25T03:13:10.266Z,7.57
2019-04-25T03:13:44.321Z,7.63
2019-04-25T03:14:47.150Z,7.55
2019-04-25T03:15:44.328Z,7.58
2019-04-25T03:18:15.890Z,7.26
2019-04-25T03:19:15.903Z,7.24
2019-04-25T03:20:18.899Z,7.29
2019-04-25T03:21:38.827Z,7.30
2019-04-25T03:22:37.406Z,7.26
2019-04-25T03:23:16.397Z,7.24
2019-04-25T03:24:16.961Z,7.23
2019-04-25T03:25:19.892Z,7.36
2019-04-25T03:26:23.407Z,7.24
2019-04-25T03:27:16.893Z,7.32
2019-04-25T03:28:16.901Z,7.33
2019-04-25T03:29:40.390Z,7.37
2019-04-25T03:30:21.391Z,7.32
2019-04-25T03:34:20.977Z,7.33
2019-04-25T03:35:23.371Z,7.27
2019-04-25T03:36:20.328Z,7.26
2019-04-25T03:37:43.625Z,7.19
2019-04-25T03:38:20.830Z,7.18
2019-04-25T03:39:20.826Z,7.16
2019-04-25T03:40:26.761Z,7.30
2019-04-25T03:41:43.878Z,7.26
2019-04-25T03:42:21.326Z,7.30
2019-04-25T03:43:21.350Z,7.33
2019-04-25T03:44:21.327Z,7.33
2019-04-25T03:45:53.555Z,7.26
2019-04-25T03:46:23.195Z,7.29
2019-04-25T03:47:23.439Z,7.24
2019-04-25T03:48:21.827Z,7.29
2019-04-25T03:49:23.763Z,7.24
2019-04-25T03:50:23.274Z,7.19
2019-04-25T03:51:28.764Z,7.26
2019-04-25T03:52:23.768Z,7.24
2019-04-25T03:53:43.856Z,7.26
2019-04-25T03:54:23.561Z,7.24
2019-04-25T03:55:24.081Z,7.30
2019-04-25T03:56:26.825Z,7.24
2019-04-25T03:57:24.770Z,7.32
2019-04-25T03:59:54.636Z,7.33
2019-04-25T04:00:54.647Z,7.26
2019-04-25T04:02:01.120Z,7.32
2019-04-25T04:04:26.378Z,7.26
2019-04-25T04:05:26.385Z,7.26
2019-04-25T04:06:26.383Z,7.32
2019-04-25T04:07:30.385Z,7.29
2019-04-25T04:08:26.885Z,7.23
2019-04-25T04:09:47.885Z,7.30
2019-04-25T04:10:26.885Z,7.29
2019-04-25T04:11:29.819Z,7.27
2019-04-25T04:12:54.364Z,7.19
2019-04-25T04:13:27.384Z,7.09
2019-04-25T04:14:48.384Z,7.12
2019-04-25T04:15:27.884Z,7.19
2019-04-25T04:16:48.885Z,7.16
2019-04-25T04:17:27.889Z,7.11
2019-04-25T04:18:54.064Z,7.15
2019-04-25T04:19:27.481Z,7.14
2019-04-25T04:20:28.385Z,7.14
2019-04-25T04:21:28.385Z,7.21
2019-04-25T04:22:49.384Z,7.18
2019-04-25T04:23:33.239Z,7.27
2019-04-25T04:24:28.888Z,7.19
2019-04-25T04:25:28.884Z,7.23
2019-04-25T04:26:28.884Z,7.18
2019-04-25T04:27:50.385Z,7.24
2019-04-25T04:28:54.854Z,7.19
2019-04-25T04:29:29.383Z,7.23
2019-04-25T04:30:29.383Z,7.24
2019-04-25T04:31:50.883Z,7.27
2019-04-25T04:32:30.836Z,7.27
2019-04-25T04:33:32.407Z,7.29
2019-04-25T04:34:33.770Z,7.34
2019-04-25T04:35:29.882Z,7.33
2019-04-25T04:36:30.395Z,7.29
2019-04-25T04:37:30.385Z,7.19
2019-04-25T04:38:31.378Z,7.23
2019-04-25T04:39:30.382Z,7.16
2019-04-25T04:40:36.131Z,7.15
2019-04-25T04:43:02.118Z,7.11
2019-04-25T04:44:02.126Z,7.11
2019-04-25T04:45:03.622Z,7.11
2019-04-25T04:46:06.125Z,7.18
2019-04-25T04:47:03.982Z,7.16
2019-04-25T04:48:03.299Z,7.21
2019-04-25T04:49:03.892Z,7.21
2019-04-25T04:50:07.074Z,7.19
2019-04-25T04:51:03.468Z,7.11
2019-04-25T04:52:08.293Z,7.15
2019-04-25T04:53:03.882Z,7.16
2019-04-25T04:55:34.869Z,7.24
2019-04-25T04:56:34.875Z,7.26
2019-04-25T04:58:01.415Z,7.30
2019-04-25T04:58:35.375Z,7.24
2019-04-25T05:01:06.743Z,7.21
2019-04-25T05:02:06.743Z,7.19
2019-04-25T05:03:31.242Z,7.24
2019-04-25T05:05:59.479Z,7.29
2019-04-25T05:06:40.486Z,7.24
2019-04-25T05:07:38.485Z,7.29
2019-04-25T05:08:43.472Z,7.29
2019-04-25T05:09:38.996Z,7.23
2019-04-25T05:10:38.988Z,7.30
2019-04-25T05:11:38.985Z,7.32
2019-04-25T05:12:39.484Z,7.30
2019-04-25T05:13:44.089Z,7.24
2019-04-25T05:14:39.493Z,7.21
2019-04-25T05:15:39.485Z,7.30
2019-04-25T05:16:39.985Z,7.30
2019-04-25T05:17:39.988Z,7.32
2019-04-25T05:18:40.149Z,7.39
2019-04-25T05:19:43.987Z,7.44
2019-04-25T05:20:40.486Z,7.39
2019-04-25T05:21:40.485Z,7.41
2019-04-25T05:22:40.484Z,7.54
2019-04-25T05:23:40.484Z,7.52
2019-04-25T05:25:05.489Z,7.57
2019-04-25T05:25:40.987Z,7.58
2019-04-25T05:26:40.984Z,7.67
2019-04-25T05:27:57.703Z,7.73
2019-04-25T05:28:41.484Z,7.76
2019-04-25T05:29:41.484Z,7.73
2019-04-25T05:30:45.484Z,7.74
2019-04-25T05:31:41.484Z,7.73
2019-04-25T05:32:42.004Z,7.84
2019-04-25T05:33:43.559Z,7.82
2019-04-25T05:34:41.992Z,7.92
2019-04-25T05:35:41.982Z,8.02
2019-04-25T05:36:47.418Z,8.04
2019-04-25T05:37:43.582Z,8.06
2019-04-25T05:38:43.601Z,8.10
2019-04-25T05:39:43.492Z,8.07
2019-04-25T05:40:43.780Z,8.29
2019-04-25T05:41:44.223Z,8.27
2019-04-25T05:42:46.483Z,8.29
2019-04-25T05:43:43.545Z,8.34
2019-04-25T05:44:44.046Z,8.42
2019-04-25T05:45:44.008Z,8.39
2019-04-25T05:46:43.740Z,8.43
2019-04-25T05:49:40.416Z,8.52
2019-04-25T05:50:19.930Z,8.57
2019-04-25T05:51:19.567Z,8.65
2019-04-25T05:52:19.945Z,8.78
2019-04-25T05:53:24.186Z,8.75
2019-04-25T05:54:21.372Z,8.75
2019-04-25T05:55:21.077Z,8.85
2019-04-25T05:56:41.423Z,8.91
2019-04-25T05:57:20.423Z,8.94
2019-04-25T05:58:25.704Z,9.10
2019-04-25T05:59:20.424Z,9.08
2019-04-25T06:00:20.927Z,9.23
2019-04-25T06:01:22.894Z,9.27
2019-04-25T06:02:21.566Z,9.31
2019-04-25T06:03:20.922Z,9.45
2019-04-25T06:04:45.483Z,9.48
2019-04-25T06:06:53.058Z,9.68
2019-04-25T06:07:54.361Z,9.71
2019-04-25T06:08:54.158Z,9.71
2019-04-25T06:09:55.723Z,9.77
2019-04-25T06:10:53.856Z,9.88
2019-04-25T06:11:53.426Z,9.88
2019-04-25T06:12:53.636Z,9.96
2019-04-25T06:13:53.725Z,9.93
2019-04-25T06:15:18.413Z,10.02
2019-04-25T06:15:53.722Z,10.17
2019-04-25T06:16:53.723Z,10.26
2019-04-25T06:18:15.223Z,10.38
2019-04-25T06:18:54.908Z,10.43
2019-04-25T06:19:58.222Z,10.49
2019-04-25T06:20:55.548Z,10.54
2019-04-25T06:21:54.724Z,10.63
2019-04-25T06:22:54.732Z,10.81
2019-04-25T06:23:56.160Z,10.80
2019-04-25T06:24:54.722Z,11.02
2019-04-25T06:26:30.835Z,11.01
2019-04-25T06:26:55.236Z,11.12
2019-04-25T06:27:58.615Z,11.26
2019-04-25T06:29:16.222Z,11.28
2019-04-25T06:30:16.726Z,11.28
2019-04-25T06:30:59.722Z,11.46
2019-04-25T06:32:05.673Z,11.54
2019-04-25T06:32:55.189Z,11.62
2019-04-25T06:33:57.184Z,11.67
2019-04-25T06:35:17.222Z,11.75
2019-04-25T06:35:56.942Z,11.90
2019-04-25T06:36:59.230Z,11.94
2019-04-25T06:37:56.246Z,11.98
2019-04-25T06:43:34.286Z,12.26
2019-04-25T06:44:34.539Z,12.41
2019-04-25T06:45:34.484Z,12.38
2019-04-25T06:46:35.533Z,12.63
2019-04-25T06:47:38.564Z,12.63
2019-04-25T06:48:55.564Z,12.70
2019-04-25T06:49:36.476Z,12.80
2019-04-25T06:50:35.413Z,12.79
2019-04-25T06:51:35.069Z,12.85
2019-04-25T06:52:35.502Z,12.88
2019-04-25T06:53:39.064Z,13.01
2019-04-25T06:54:35.566Z,13.13
2019-04-25T06:55:35.571Z,13.21
2019-04-25T06:56:35.564Z,13.28
2019-04-25T06:57:36.519Z,13.17
2019-04-25T06:59:07.999Z,13.27
2019-04-25T07:01:07.304Z,13.47
2019-04-25T07:02:07.312Z,13.51
2019-04-25T07:03:07.309Z,13.65
2019-04-25T07:04:33.949Z,13.75
2019-04-25T07:05:07.809Z,13.83
2019-04-25T07:06:08.745Z,13.76
2019-04-25T07:07:12.135Z,13.90
2019-04-25T07:08:10.313Z,13.96
2019-04-25T07:09:09.242Z,14.06
2019-04-25T07:10:13.291Z,14.04
2019-04-25T07:11:14.005Z,14.16
2019-04-25T07:12:08.805Z,14.24
2019-04-25T07:13:08.811Z,14.38
2019-04-25T07:14:29.810Z,14.41
2019-04-25T07:15:14.808Z,14.54
2019-04-25T07:16:13.384Z,14.67
2019-04-25T07:18:40.675Z,14.79
2019-04-25T07:19:40.680Z,14.85
2019-04-25T07:20:40.680Z,14.97
2019-04-25T07:21:44.680Z,15.09
2019-04-25T07:22:41.189Z,15.13
2019-04-25T07:23:41.182Z,15.22
2019-04-25T07:24:41.180Z,15.31
2019-04-25T07:25:43.747Z,15.41
2019-04-25T07:26:41.742Z,15.37
2019-04-25T07:27:45.680Z,15.55
2019-04-25T07:28:41.686Z,15.66
2019-04-25T07:29:43.224Z,15.74
2019-04-25T07:30:49.981Z,15.88
2019-04-25T07:31:42.180Z,15.95
2019-04-25T07:32:43.879Z,16.06
2019-04-25T07:33:47.154Z,16.08
2019-04-25T07:34:43.842Z,15.99
2019-04-25T07:35:43.414Z,16.01
2019-04-25T07:36:42.680Z,15.91
2019-04-25T07:37:44.113Z,16.13
2019-04-25T07:38:48.141Z,15.91
2019-04-25T07:39:44.268Z,15.71
2019-04-25T07:40:43.420Z,15.78
2019-04-25T07:41:44.149Z,15.89
2019-04-25T07:42:43.957Z,15.77
2019-04-25T07:45:39.446Z,15.98
2019-04-25T07:46:18.449Z,16.16
2019-04-25T07:47:39.484Z,16.26
2019-04-25T07:48:39.951Z,16.30
2019-04-25T07:49:43.453Z,16.40
2019-04-25T07:50:39.957Z,16.54
2019-04-25T07:51:18.951Z,16.69
2019-04-25T07:52:44.177Z,16.78
2019-04-25T07:53:19.445Z,16.82
2019-04-25T07:54:19.490Z,16.95
2019-04-25T07:55:23.955Z,16.95
2019-04-25T07:56:40.950Z,17.09
2019-04-25T07:57:40.949Z,17.07
2019-04-25T07:58:19.994Z,17.12
2019-04-25T07:59:40.949Z,17.32
2019-04-25T08:00:20.446Z,17.39
2019-04-25T08:01:23.958Z,17.45
2019-04-25T08:02:23.309Z,17.60
2019-04-25T08:03:41.451Z,17.71
2019-04-25T08:04:20.950Z,17.74
2019-04-25T08:05:41.954Z,17.74
2019-04-25T08:06:24.970Z,17.83
2019-04-25T08:07:20.454Z,17.84
2019-04-25T08:08:23.553Z,17.87
2019-04-25T08:10:53.485Z,18.02
2019-04-25T08:11:56.330Z,17.99
2019-04-25T08:12:53.609Z,17.98
2019-04-25T08:13:53.426Z,18.04
2019-04-25T08:14:54.182Z,18.09
2019-04-25T08:15:53.846Z,18.11
2019-04-25T08:16:53.777Z,18.19
2019-04-25T08:17:58.262Z,18.28
2019-04-25T08:18:54.019Z,18.41
2019-04-25T08:19:54.360Z,18.47
2019-04-25T08:20:53.859Z,18.34
2019-04-25T08:21:54.326Z,18.42
2019-04-25T08:22:58.579Z,18.38
2019-04-25T08:23:57.330Z,18.35
2019-04-25T08:24:54.332Z,18.42
2019-04-25T08:25:54.495Z,18.49
2019-04-25T08:26:54.826Z,18.53
2019-04-25T08:27:55.247Z,18.51
2019-04-25T08:28:58.827Z,18.49
2019-04-25T08:29:54.829Z,18.56
2019-04-25T08:30:55.334Z,18.71
2019-04-25T08:31:55.333Z,18.74
2019-04-25T08:32:55.328Z,18.87
2019-04-25T08:33:55.326Z,18.89
2019-04-25T08:34:59.830Z,18.82
2019-04-25T08:36:04.326Z,18.89
2019-04-25T08:36:55.172Z,18.90
2019-04-25T08:37:55.826Z,18.94
2019-04-25T08:39:17.327Z,19.02
2019-04-25T08:40:23.818Z,19.05
2019-04-25T08:40:56.326Z,19.09
2019-04-25T08:41:56.336Z,19.24
2019-04-25T08:43:17.827Z,19.17
2019-04-25T08:44:17.827Z,19.25
2019-04-25T08:44:56.831Z,19.40
2019-04-25T08:46:00.842Z,19.49
2019-04-25T08:48:44.351Z,19.75
2019-04-25T08:49:28.594Z,19.58
2019-04-25T08:50:31.285Z,19.62
2019-04-25T08:51:54.248Z,19.64
2019-04-25T08:52:29.091Z,19.75
2019-04-25T08:53:29.091Z,19.62
2019-04-25T08:54:29.090Z,19.60
2019-04-25T08:55:29.588Z,19.64
2019-04-25T08:57:00.090Z,19.64
2019-04-25T08:57:29.590Z,19.62
2019-04-25T08:58:29.590Z,19.72
2019-04-25T08:59:52.976Z,19.71
2019-04-25T09:01:00.827Z,19.70
2019-04-25T09:01:56.565Z,19.87
2019-04-25T09:02:30.089Z,19.86
2019-04-25T09:03:53.897Z,19.90
2019-04-25T09:04:30.595Z,19.89
2019-04-25T09:05:30.611Z,20.01
2019-04-25T09:06:30.592Z,20.04
2019-04-25T09:07:35.457Z,20.07
2019-04-25T09:08:31.094Z,20.30
2019-04-25T09:09:35.014Z,20.20
2019-04-25T09:10:31.093Z,20.35
2019-04-25T09:11:54.301Z,20.37
2019-04-25T09:12:56.091Z,20.51
2019-04-25T09:13:31.593Z,20.56
2019-04-25T09:14:32.387Z,20.58
2019-04-25T09:15:54.037Z,20.60
2019-04-25T09:16:53.368Z,20.66
2019-04-25T09:17:54.713Z,20.53
2019-04-25T09:18:36.944Z,20.73
2019-04-25T09:19:33.383Z,20.76
2019-04-25T09:20:53.999Z,20.75
2019-04-25T09:21:34.142Z,20.79
2019-04-25T09:22:35.035Z,20.91
2019-04-25T09:23:36.534Z,21.08
2019-04-25T09:24:54.141Z,21.16
2019-04-25T09:28:40.729Z,21.28
2019-04-25T09:29:36.749Z,21.45
2019-04-25T09:32:07.673Z,21.48
2019-04-25T09:33:07.684Z,21.53
2019-04-25T09:35:45.503Z,21.48
2019-04-25T09:36:43.926Z,21.45
2019-04-25T09:37:44.766Z,21.40
2019-04-25T09:38:45.110Z,21.21
2019-04-25T09:39:46.490Z,21.08
2019-04-25T09:40:45.418Z,21.31
2019-04-25T09:41:44.147Z,21.33
2019-04-25T09:42:44.742Z,21.49
2019-04-25T09:43:45.302Z,21.45
2019-04-25T09:44:44.175Z,21.51
2019-04-25T09:45:46.425Z,21.46
2019-04-25T09:46:44.138Z,21.53
2019-04-25T09:47:44.827Z,21.61
2019-04-25T09:48:44.584Z,21.70
2019-04-25T09:49:44.895Z,21.74
2019-04-25T09:50:47.931Z,21.73
2019-04-25T09:51:45.720Z,21.77
2019-04-25T09:52:47.000Z,21.93
2019-04-25T09:53:49.607Z,21.91
2019-04-25T09:54:45.188Z,21.94
2019-04-25T09:55:47.236Z,22.08
2019-04-25T09:56:48.927Z,22.05
2019-04-25T09:57:45.954Z,22.20
2019-04-25T09:58:48.313Z,22.11
2019-04-25T09:59:46.212Z,22.09
2019-04-25T10:00:45.685Z,21.81
2019-04-25T10:01:48.929Z,21.85
2019-04-25T10:02:45.426Z,21.79
2019-04-25T10:03:45.928Z,21.79
2019-04-25T10:04:48.161Z,21.79
2019-04-25T10:06:07.869Z,21.99
2019-04-25T10:06:46.092Z,22.06
2019-04-25T10:07:49.931Z,22.06
2019-04-25T10:08:47.419Z,22.02
2019-04-25T10:09:46.430Z,22.14
2019-04-25T10:12:17.932Z,22.20
2019-04-25T10:13:21.446Z,22.19
2019-04-25T10:14:17.946Z,22.15
2019-04-25T10:16:53.865Z,22.46
2019-04-25T10:17:49.711Z,22.51
2019-04-25T10:18:53.376Z,22.66
2019-04-25T10:19:50.216Z,22.75
2019-04-25T10:21:14.144Z,22.81
2019-04-25T10:21:50.203Z,22.79
2019-04-25T10:22:50.203Z,22.85
2019-04-25T10:23:54.200Z,22.63
2019-04-25T10:25:13.702Z,22.72
2019-04-25T10:26:11.703Z,22.81
2019-04-25T10:26:50.704Z,22.89
2019-04-25T10:27:51.980Z,23.15
2019-04-25T10:28:51.836Z,23.39
2019-04-25T10:29:57.044Z,23.49
2019-04-25T10:30:51.203Z,23.50
2019-04-25T10:31:51.712Z,23.57
2019-04-25T10:32:51.706Z,23.77
2019-04-25T10:33:53.443Z,23.71
2019-04-25T10:34:55.707Z,23.74
2019-04-25T10:36:14.422Z,23.86
2019-04-25T10:36:53.263Z,24.08
2019-04-25T10:37:53.752Z,24.21
2019-04-25T10:39:04.294Z,24.02
2019-04-25T10:41:28.138Z,24.08
2019-04-25T10:42:28.146Z,23.96
2019-04-25T10:43:28.146Z,24.06
2019-04-25T10:44:28.647Z,24.08
2019-04-25T10:45:33.953Z,24.05
2019-04-25T10:46:28.646Z,24.27
2019-04-25T10:47:28.644Z,24.48
2019-04-25T10:48:30.579Z,24.39
2019-04-25T10:49:29.160Z,24.42
2019-04-25T10:50:29.149Z,24.55
2019-04-25T10:51:34.592Z,24.60
2019-04-25T10:52:50.645Z,24.75
2019-04-25T10:53:29.645Z,24.80
2019-04-25T10:54:29.644Z,24.45
2019-04-25T10:55:50.645Z,24.23
2019-04-25T10:56:29.650Z,24.18
2019-04-25T10:57:55.064Z,24.14
2019-04-25T10:58:29.373Z,24.27
2019-04-25T10:59:31.082Z,24.52
2019-04-25T11:00:30.153Z,24.52
2019-04-25T11:01:53.526Z,24.61
2019-04-25T11:02:55.663Z,24.67
2019-04-25T11:03:30.658Z,24.79
2019-04-25T11:04:51.773Z,24.67
2019-04-25T11:05:31.171Z,24.75
2019-04-25T11:06:31.146Z,24.51
2019-04-25T11:07:31.146Z,24.36
2019-04-25T11:08:34.653Z,23.97
2019-04-25T11:09:53.972Z,23.82
2019-04-25T11:10:31.646Z,23.74
2019-04-25T11:11:31.645Z,23.84
2019-04-25T11:12:31.648Z,23.87
2019-04-25T11:13:35.688Z,23.79
2019-04-25T11:14:35.580Z,23.72
2019-04-25T11:15:55.846Z,23.67
2019-04-25T11:16:33.377Z,23.96
2019-04-25T11:17:33.856Z,24.11
2019-04-25T11:18:34.053Z,24.30
2019-04-25T11:19:37.350Z,24.44
2019-04-25T11:20:33.844Z,24.45
2019-04-25T11:21:33.340Z,24.49
2019-04-25T11:24:04.534Z,24.48
2019-04-25T11:25:08.040Z,24.75
2019-04-25T11:26:04.537Z,24.80
2019-04-25T11:27:05.050Z,24.82
2019-04-25T11:28:05.066Z,24.94
2019-04-25T11:29:27.471Z,25.02
2019-04-25T11:30:10.597Z,24.98
2019-04-25T11:31:09.036Z,25.17
2019-04-25T11:32:34.058Z,25.02
2019-04-25T11:33:26.538Z,25.01
2019-04-25T11:34:05.536Z,25.11
2019-04-25T11:35:06.038Z,25.27
2019-04-25T11:36:36.540Z,25.35
2019-04-25T11:38:38.051Z,25.53
2019-04-25T11:39:38.055Z,25.53
2019-04-25T11:40:38.057Z,25.59
2019-04-25T11:41:43.254Z,25.64
2019-04-25T11:42:38.554Z,25.82
2019-04-25T11:43:38.554Z,25.79
2019-04-25T11:44:38.563Z,25.48
2019-04-25T11:45:38.565Z,25.16
2019-04-25T11:47:05.755Z,25.04
2019-04-25T11:47:38.288Z,24.98
2019-04-25T11:49:00.056Z,24.64
2019-04-25T11:50:00.057Z,24.52
2019-04-25T11:50:39.563Z,24.60
2019-04-25T11:51:39.555Z,24.75
2019-04-25T11:52:43.732Z,24.66
2019-04-25T11:53:54.573Z,24.70
2019-04-25T11:54:41.525Z,24.84
2019-04-25T11:55:40.056Z,24.97
2019-04-25T11:56:40.057Z,25.07
2019-04-25T11:57:48.680Z,25.05
2019-04-25T12:00:25.810Z,25.29
2019-04-25T12:01:11.823Z,25.27
2019-04-25T12:02:13.289Z,25.30
2019-04-25T12:03:15.825Z,25.30
2019-04-25T12:04:14.922Z,25.09
2019-04-25T12:05:34.385Z,25.19
2019-04-25T12:06:14.049Z,25.44
2019-04-25T12:07:34.253Z,25.78
2019-04-25T12:08:16.322Z,25.81
2019-04-25T12:09:13.876Z,25.97
2019-04-25T12:10:12.823Z,25.98
2019-04-25T12:11:13.896Z,25.75
2019-04-25T12:12:14.632Z,25.46
2019-04-25T12:13:17.323Z,25.09
2019-04-25T12:14:14.908Z,25.17
2019-04-25T12:16:48.461Z,25.09
2019-04-25T12:17:45.594Z,25.08
2019-04-25T12:18:50.356Z,24.66
2019-04-25T12:19:47.075Z,24.74
2019-04-25T12:20:46.604Z,24.83
2019-04-25T12:21:46.106Z,25.08
2019-04-25T12:22:48.263Z,25.22
2019-04-25T12:23:50.754Z,25.30
2019-04-25T12:24:48.592Z,25.36
2019-04-25T12:25:47.516Z,25.36
2019-04-25T12:26:47.817Z,25.30
2019-04-25T12:27:48.589Z,25.53
2019-04-25T12:29:19.025Z,25.49
2019-04-25T12:29:47.091Z,25.39
2019-04-25T12:31:09.525Z,25.39
2019-04-25T12:31:47.707Z,25.09
2019-04-25T12:32:47.915Z,25.08
2019-04-25T12:33:49.059Z,24.98
2019-04-25T12:35:14.186Z,24.90
2019-04-25T12:37:40.307Z,24.67
2019-04-25T12:38:40.316Z,24.48
2019-04-25T12:39:40.311Z,24.27
2019-04-25T12:40:24.214Z,24.18
2019-04-25T12:42:52.157Z,24.24
2019-04-25T12:43:52.251Z,24.12
2019-04-25T12:44:51.199Z,24.15
2019-04-25T12:46:16.208Z,24.08
2019-04-25T12:46:52.500Z,24.11
2019-04-25T12:47:51.705Z,24.08
2019-04-25T12:48:51.766Z,24.14
2019-04-25T12:49:53.189Z,24.11
2019-04-25T12:50:56.695Z,24.08
2019-04-25T12:51:55.200Z,24.16
2019-04-25T12:52:54.505Z,24.23
2019-04-25T12:53:54.697Z,24.12
2019-04-25T12:54:55.477Z,24.11
2019-04-25T12:55:53.763Z,24.18
2019-04-25T12:56:57.259Z,24.09
2019-04-25T12:57:54.831Z,24.09
2019-04-25T12:58:53.845Z,24.09
2019-04-25T12:59:55.149Z,24.19
2019-04-25T13:00:58.195Z,24.15
2019-04-25T13:01:54.597Z,24.15
2019-04-25T13:04:28.945Z,24.12
2019-04-25T13:05:28.952Z,24.18
2019-04-25T13:06:28.952Z,24.09
2019-04-25T13:07:51.461Z,24.15
2019-04-25T13:08:37.385Z,24.11
2019-04-25T13:09:29.453Z,24.15
2019-04-25T13:10:50.452Z,24.14
2019-04-25T13:11:50.962Z,23.87
2019-04-25T13:14:04.841Z,23.72
2019-04-25T13:15:23.525Z,23.75
2019-04-25T13:16:01.350Z,23.71
2019-04-25T13:18:33.104Z,23.78
2019-04-25T13:19:36.613Z,23.72
2019-04-25T13:20:33.112Z,23.79
2019-04-25T13:21:33.618Z,23.87
2019-04-25T13:22:55.752Z,23.74
2019-04-25T13:23:34.277Z,23.77
2019-04-25T13:24:37.612Z,23.81
2019-04-25T13:25:35.546Z,23.86
2019-04-25T13:26:35.071Z,23.87
2019-04-25T13:27:34.122Z,23.89
2019-04-25T13:28:56.154Z,23.84
2019-04-25T13:29:40.046Z,23.86
2019-04-25T13:32:06.330Z,23.64
2019-04-25T13:33:06.504Z,23.69
2019-04-25T13:34:36.110Z,23.68
2019-04-25T13:35:10.899Z,23.74
2019-04-25T13:36:06.489Z,23.86
2019-04-25T13:37:27.491Z,23.86
2019-04-25T13:39:38.249Z,23.93
2019-04-25T13:40:40.758Z,24.02
2019-04-25T13:41:38.310Z,24.18
2019-04-25T13:45:45.377Z,24.39
2019-04-25T13:46:43.203Z,24.49
2019-04-25T13:47:41.384Z,24.51
2019-04-25T13:50:14.583Z,24.93
2019-04-25T13:51:16.648Z,24.83
2019-04-25T13:52:13.162Z,24.90
2019-04-25T13:53:13.646Z,24.94
2019-04-25T13:54:14.883Z,24.99
2019-04-25T13:55:34.712Z,25.07
2019-04-25T13:56:13.650Z,25.20
2019-04-25T13:57:17.657Z,25.26
2019-04-25T13:58:14.433Z,25.46
2019-04-25T13:59:14.147Z,25.56
2019-04-25T14:00:14.247Z,25.41
2019-04-25T14:01:16.986Z,25.36
2019-04-25T14:02:14.647Z,25.41
2019-04-25T14:03:18.646Z,25.27
2019-04-25T14:04:14.647Z,24.97
2019-04-25T14:05:15.147Z,24.92
2019-04-25T14:06:38.587Z,25.02
2019-04-25T14:07:15.153Z,24.80
2019-04-25T14:08:15.152Z,24.92
2019-04-25T14:09:18.647Z,24.99
2019-04-25T14:10:15.647Z,25.09
2019-04-25T14:11:15.647Z,25.23
2019-04-25T14:12:15.660Z,25.22
2019-04-25T14:13:16.147Z,25.51
2019-04-25T14:14:44.159Z,25.76
2019-04-25T14:15:16.148Z,25.63
2019-04-25T14:16:16.148Z,25.81
2019-04-25T14:17:16.653Z,25.93
2019-04-25T14:18:17.603Z,25.96
2019-04-25T14:19:47.654Z,26.11
2019-04-25T14:20:17.582Z,26.81
2019-04-25T14:21:16.649Z,26.96